sensor_id;sensor_type;location;lat;lon;timestamp;pressure;altitude;pressure_sealevel;temperature;humidity
5550;BME280;2798;42.716;23.256;2022-08-21T00:02:25;94220.09;;;19.81;100.00
5550;BME280;2798;42.716;23.256;2022-08-21T00:04:51;94211.34;;;19.89;100.00
5550;BME280;2798;42.716;23.256;2022-08-21T00:07:19;94210.72;;;19.72;100.00
5550;BME280;2798;42.716;23.256;2022-08-21T00:09:45;94214.69;;;19.68;100.00
5550;BME280;2798;42.716;23.256;2022-08-21T00:12:11;94182.47;;;19.30;100.00
5550;BME280;2798;42.716;23.256;2022-08-21T00:14:37;94217.66;;;19.34;100.00
5550;BME280;2798;42.716;23.256;2022-08-21T00:17:04;94214.59;;;19.31;100.00
5550;BME280;2798;42.716;23.256;2022-08-21T00:19:30;94209.63;;;19.21;100.00
5550;BME280;2798;42.716;23.256;2022-08-21T00:21:56;94204.06;;;19.00;100.00
5550;BME280;2798;42.716;23.256;2022-08-21T00:24:23;94199.41;;;18.96;100.00
5550;BME280;2798;42.716;23.256;2022-08-21T00:26:50;94185.81;;;19.00;100.00
5550;BME280;2798;42.716;23.256;2022-08-21T00:29:17;94179.31;;;18.96;100.00
5550;BME280;2798;42.716;23.256;2022-08-21T00:31:43;94185.38;;;18.97;100.00
5550;BME280;2798;42.716;23.256;2022-08-21T00:34:09;94190.13;;;18.93;100.00
5550;BME280;2798;42.716;23.256;2022-08-21T00:36:36;94188.50;;;19.07;100.00
5550;BME280;2798;42.716;23.256;2022-08-21T00:39:03;94197.94;;;19.17;100.00
5550;BME280;2798;42.716;23.256;2022-08-21T00:41:29;94197.75;;;19.33;100.00
5550;BME280;2798;42.716;23.256;2022-08-21T00:43:55;94187.22;;;19.42;100.00
5550;BME280;2798;42.716;23.256;2022-08-21T00:46:20;94190.66;;;19.42;100.00
5550;BME280;2798;42.716;23.256;2022-08-21T00:48:46;94193.25;;;19.57;100.00
5550;BME280;2798;42.716;23.256;2022-08-21T00:51:24;94180.31;;;19.49;100.00
5550;BME280;2798;42.716;23.256;2022-08-21T00:53:54;94196.69;;;19.58;100.00
5550;BME280;2798;42.716;23.256;2022-08-21T00:56:22;94197.31;;;19.60;100.00
5550;BME280;2798;42.716;23.256;2022-08-21T00:58:49;94197.41;;;19.51;100.00
5550;BME280;2798;42.716;23.256;2022-08-21T01:01:16;94194.16;;;19.49;100.00
5550;BME280;2798;42.716;23.256;2022-08-21T01:03:41;94186.16;;;19.51;100.00
5550;BME280;2798;42.716;23.256;2022-08-21T01:06:07;94191.81;;;19.55;100.00
5550;BME280;2798;42.716;23.256;2022-08-21T01:08:33;94186.97;;;19.51;100.00
5550;BME280;2798;42.716;23.256;2022-08-21T01:10:59;94182.13;;;19.48;100.00
5550;BME280;2798;42.716;23.256;2022-08-21T01:13:27;94182.03;;;19.57;100.00
5550;BME280;2798;42.716;23.256;2022-08-21T01:15:57;94157.34;;;19.44;100.00
5550;BME280;2798;42.716;23.256;2022-08-21T01:18:25;94172.75;;;19.69;100.00
5550;BME280;2798;42.716;23.256;2022-08-21T01:21:11;94167.44;;;19.62;100.00
5550;BME280;2798;42.716;23.256;2022-08-21T01:23:39;94165.38;;;19.58;100.00
5550;BME280;2798;42.716;23.256;2022-08-21T01:26:06;94162.31;;;19.54;100.00
5550;BME280;2798;42.716;23.256;2022-08-21T01:28:36;94163.41;;;19.60;100.00
5550;BME280;2798;42.716;23.256;2022-08-21T01:31:05;94167.69;;;19.52;100.00
5550;BME280;2798;42.716;23.256;2022-08-21T01:33:32;94177.97;;;19.39;100.00
5550;BME280;2798;42.716;23.256;2022-08-21T01:35:58;94175.97;;;19.41;100.00
5550;BME280;2798;42.716;23.256;2022-08-21T01:38:24;94167.00;;;19.13;100.00
5550;BME280;2798;42.716;23.256;2022-08-21T01:40:49;94148.09;;;18.88;100.00
5550;BME280;2798;42.716;23.256;2022-08-21T01:43:15;94141.31;;;19.02;100.00
5550;BME280;2798;42.716;23.256;2022-08-21T01:45:40;94185.16;;;19.37;100.00
5550;BME280;2798;42.716;23.256;2022-08-21T01:48:06;94184.09;;;19.46;100.00
5550;BME280;2798;42.716;23.256;2022-08-21T01:50:31;94130.88;;;19.02;100.00
5550;BME280;2798;42.716;23.256;2022-08-21T01:52:57;94171.13;;;19.38;100.00
5550;BME280;2798;42.716;23.256;2022-08-21T01:55:23;94166.34;;;19.42;100.00
5550;BME280;2798;42.716;23.256;2022-08-21T01:57:48;94175.09;;;19.34;100.00
5550;BME280;2798;42.716;23.256;2022-08-21T02:00:18;94171.56;;;18.88;100.00
5550;BME280;2798;42.716;23.256;2022-08-21T02:02:44;94172.28;;;18.82;100.00
5550;BME280;2798;42.716;23.256;2022-08-21T02:05:11;94168.91;;;18.96;100.00
5550;BME280;2798;42.716;23.256;2022-08-21T02:07:46;94182.81;;;19.27;100.00
5550;BME280;2798;42.716;23.256;2022-08-21T02:10:16;94181.00;;;19.12;100.00
5550;BME280;2798;42.716;23.256;2022-08-21T02:12:42;94184.81;;;19.01;100.00
5550;BME280;2798;42.716;23.256;2022-08-21T02:15:08;94183.75;;;18.96;100.00
5550;BME280;2798;42.716;23.256;2022-08-21T02:17:55;94185.53;;;18.95;100.00
5550;BME280;2798;42.716;23.256;2022-08-21T02:22:51;94180.69;;;18.92;100.00
5550;BME280;2798;42.716;23.256;2022-08-21T02:25:18;94184.25;;;18.91;100.00
5550;BME280;2798;42.716;23.256;2022-08-21T02:27:45;94188.63;;;18.99;100.00
5550;BME280;2798;42.716;23.256;2022-08-21T02:30:15;94182.41;;;19.00;100.00
5550;BME280;2798;42.716;23.256;2022-08-21T02:32:41;94180.50;;;18.94;100.00
5550;BME280;2798;42.716;23.256;2022-08-21T02:35:08;94186.97;;;18.98;100.00
5550;BME280;2798;42.716;23.256;2022-08-21T02:37:42;94187.16;;;18.96;100.00
5550;BME280;2798;42.716;23.256;2022-08-21T02:40:08;94161.59;;;18.76;100.00
5550;BME280;2798;42.716;23.256;2022-08-21T02:42:36;94195.91;;;19.03;100.00
5550;BME280;2798;42.716;23.256;2022-08-21T02:45:03;94210.72;;;19.03;100.00
5550;BME280;2798;42.716;23.256;2022-08-21T02:47:28;94189.03;;;19.02;100.00
5550;BME280;2798;42.716;23.256;2022-08-21T02:49:54;94193.47;;;19.02;100.00
5550;BME280;2798;42.716;23.256;2022-08-21T02:52:20;64796.84;;;-148.84;100.00
5550;BME280;2798;42.716;23.256;2022-08-21T02:54:47;64796.84;;;-148.84;100.00
5550;BME280;2798;42.716;23.256;2022-08-21T02:57:12;64796.84;;;-148.84;100.00
5550;BME280;2798;42.716;23.256;2022-08-21T02:59:38;64796.84;;;-148.84;100.00
5550;BME280;2798;42.716;23.256;2022-08-21T03:02:04;64796.84;;;-148.84;100.00
5550;BME280;2798;42.716;23.256;2022-08-21T03:04:29;64796.84;;;-148.84;100.00
5550;BME280;2798;42.716;23.256;2022-08-21T03:06:54;64796.84;;;-148.84;100.00
5550;BME280;2798;42.716;23.256;2022-08-21T03:09:20;64796.84;;;-148.84;100.00
5550;BME280;2798;42.716;23.256;2022-08-21T03:11:45;64796.84;;;-148.84;100.00
5550;BME280;2798;42.716;23.256;2022-08-21T03:14:11;64796.84;;;-148.84;100.00
5550;BME280;2798;42.716;23.256;2022-08-21T03:16:37;64796.84;;;-148.84;100.00
5550;BME280;2798;42.716;23.256;2022-08-21T03:19:02;64796.84;;;-148.84;100.00
5550;BME280;2798;42.716;23.256;2022-08-21T03:21:28;64796.84;;;-148.84;100.00
5550;BME280;2798;42.716;23.256;2022-08-21T03:23:54;64796.84;;;-148.84;100.00
5550;BME280;2798;42.716;23.256;2022-08-21T03:26:19;64796.84;;;-148.84;100.00
5550;BME280;2798;42.716;23.256;2022-08-21T03:28:45;64796.84;;;-148.84;100.00
5550;BME280;2798;42.716;23.256;2022-08-21T03:31:10;64796.84;;;-148.84;100.00
5550;BME280;2798;42.716;23.256;2022-08-21T03:33:36;64796.84;;;-148.84;100.00
5550;BME280;2798;42.716;23.256;2022-08-21T03:36:04;64796.84;;;-148.84;100.00
5550;BME280;2798;42.716;23.256;2022-08-21T03:38:32;64796.84;;;-148.84;100.00
5550;BME280;2798;42.716;23.256;2022-08-21T03:40:58;64796.84;;;-148.84;100.00
5550;BME280;2798;42.716;23.256;2022-08-21T03:43:24;64796.84;;;-148.84;100.00
5550;BME280;2798;42.716;23.256;2022-08-21T03:45:50;64796.84;;;-148.84;100.00
5550;BME280;2798;42.716;23.256;2022-08-21T03:48:15;64796.84;;;-148.84;100.00
5550;BME280;2798;42.716;23.256;2022-08-21T03:50:43;64796.84;;;-148.84;100.00
5550;BME280;2798;42.716;23.256;2022-08-21T03:53:11;64796.84;;;-148.84;100.00
5550;BME280;2798;42.716;23.256;2022-08-21T03:55:36;64796.84;;;-148.84;100.00
5550;BME280;2798;42.716;23.256;2022-08-21T03:58:02;64796.84;;;-148.84;100.00
5550;BME280;2798;42.716;23.256;2022-08-21T04:00:28;64796.84;;;-148.84;100.00
5550;BME280;2798;42.716;23.256;2022-08-21T04:02:54;64796.84;;;-148.84;100.00
5550;BME280;2798;42.716;23.256;2022-08-21T04:05:20;64796.84;;;-148.84;100.00
5550;BME280;2798;42.716;23.256;2022-08-21T04:08:00;64796.84;;;-148.84;100.00
5550;BME280;2798;42.716;23.256;2022-08-21T04:10:28;64796.84;;;-148.84;100.00
5550;BME280;2798;42.716;23.256;2022-08-21T04:12:54;64796.84;;;-148.84;100.00
5550;BME280;2798;42.716;23.256;2022-08-21T04:15:21;64796.84;;;-148.84;100.00
5550;BME280;2798;42.716;23.256;2022-08-21T04:17:47;64796.84;;;-148.84;100.00
5550;BME280;2798;42.716;23.256;2022-08-21T04:20:14;64796.84;;;-148.84;100.00
5550;BME280;2798;42.716;23.256;2022-08-21T04:22:40;64796.84;;;-148.84;100.00
5550;BME280;2798;42.716;23.256;2022-08-21T04:25:06;64796.84;;;-148.84;100.00
5550;BME280;2798;42.716;23.256;2022-08-21T04:27:32;64796.84;;;-148.84;100.00
5550;BME280;2798;42.716;23.256;2022-08-21T04:29:58;64796.84;;;-148.84;100.00
5550;BME280;2798;42.716;23.256;2022-08-21T04:32:24;64796.84;;;-148.84;100.00
5550;BME280;2798;42.716;23.256;2022-08-21T04:34:49;64796.84;;;-148.84;100.00
5550;BME280;2798;42.716;23.256;2022-08-21T04:37:15;64796.84;;;-148.84;100.00
5550;BME280;2798;42.716;23.256;2022-08-21T04:39:41;64796.84;;;-148.84;100.00
5550;BME280;2798;42.716;23.256;2022-08-21T04:42:07;64796.84;;;-148.84;100.00
5550;BME280;2798;42.716;23.256;2022-08-21T04:44:33;64796.84;;;-148.84;100.00
5550;BME280;2798;42.716;23.256;2022-08-21T04:46:58;64796.84;;;-148.84;100.00
5550;BME280;2798;42.716;23.256;2022-08-21T04:49:24;64796.84;;;-148.84;100.00
5550;BME280;2798;42.716;23.256;2022-08-21T04:51:49;64796.84;;;-148.84;100.00
5550;BME280;2798;42.716;23.256;2022-08-21T04:54:20;64796.84;;;-148.84;100.00
5550;BME280;2798;42.716;23.256;2022-08-21T04:56:53;64796.84;;;-148.84;100.00
5550;BME280;2798;42.716;23.256;2022-08-21T04:59:24;64796.84;;;-148.84;100.00
5550;BME280;2798;42.716;23.256;2022-08-21T05:01:52;64796.84;;;-148.84;100.00
5550;BME280;2798;42.716;23.256;2022-08-21T05:04:23;64796.84;;;-148.84;100.00
5550;BME280;2798;42.716;23.256;2022-08-21T05:06:51;64796.84;;;-148.84;100.00
5550;BME280;2798;42.716;23.256;2022-08-21T05:09:19;64796.84;;;-148.84;100.00
5550;BME280;2798;42.716;23.256;2022-08-21T05:11:45;64796.84;;;-148.84;100.00
5550;BME280;2798;42.716;23.256;2022-08-21T05:14:11;64796.84;;;-148.84;100.00
5550;BME280;2798;42.716;23.256;2022-08-21T05:16:37;64796.84;;;-148.84;100.00
5550;BME280;2798;42.716;23.256;2022-08-21T05:19:04;64796.84;;;-148.84;100.00
5550;BME280;2798;42.716;23.256;2022-08-21T05:21:29;64796.84;;;-148.84;100.00
5550;BME280;2798;42.716;23.256;2022-08-21T05:23:55;64796.84;;;-148.84;100.00
5550;BME280;2798;42.716;23.256;2022-08-21T05:26:20;64796.84;;;-148.84;100.00
5550;BME280;2798;42.716;23.256;2022-08-21T05:28:46;64796.84;;;-148.84;100.00
5550;BME280;2798;42.716;23.256;2022-08-21T05:31:11;64796.84;;;-148.84;100.00
5550;BME280;2798;42.716;23.256;2022-08-21T05:33:36;64796.84;;;-148.84;100.00
5550;BME280;2798;42.716;23.256;2022-08-21T05:36:02;64796.84;;;-148.84;100.00
5550;BME280;2798;42.716;23.256;2022-08-21T05:38:28;64796.84;;;-148.84;100.00
5550;BME280;2798;42.716;23.256;2022-08-21T05:40:54;64796.84;;;-148.84;100.00
5550;BME280;2798;42.716;23.256;2022-08-21T05:43:20;64796.84;;;-148.84;100.00
5550;BME280;2798;42.716;23.256;2022-08-21T05:45:45;64796.84;;;-148.84;100.00
5550;BME280;2798;42.716;23.256;2022-08-21T05:48:15;64796.84;;;-148.84;100.00
5550;BME280;2798;42.716;23.256;2022-08-21T05:50:41;64796.84;;;-148.84;100.00
5550;BME280;2798;42.716;23.256;2022-08-21T05:53:07;64796.84;;;-148.84;100.00
5550;BME280;2798;42.716;23.256;2022-08-21T05:55:32;64796.84;;;-148.84;100.00
5550;BME280;2798;42.716;23.256;2022-08-21T05:57:58;64796.84;;;-148.84;100.00
5550;BME280;2798;42.716;23.256;2022-08-21T06:00:24;64796.84;;;-148.84;100.00
5550;BME280;2798;42.716;23.256;2022-08-21T06:02:50;64796.84;;;-148.84;100.00
5550;BME280;2798;42.716;23.256;2022-08-21T06:05:16;64796.84;;;-148.84;100.00
5550;BME280;2798;42.716;23.256;2022-08-21T06:07:42;64796.84;;;-148.84;100.00
5550;BME280;2798;42.716;23.256;2022-08-21T06:10:08;64796.84;;;-148.84;100.00
5550;BME280;2798;42.716;23.256;2022-08-21T06:12:33;64796.84;;;-148.84;100.00
5550;BME280;2798;42.716;23.256;2022-08-21T06:14:59;64796.84;;;-148.84;100.00
5550;BME280;2798;42.716;23.256;2022-08-21T06:17:24;64796.84;;;-148.84;100.00
5550;BME280;2798;42.716;23.256;2022-08-21T06:19:53;64796.84;;;-148.84;100.00
5550;BME280;2798;42.716;23.256;2022-08-21T06:22:20;64796.84;;;-148.84;100.00
5550;BME280;2798;42.716;23.256;2022-08-21T06:24:45;64796.84;;;-148.84;100.00
5550;BME280;2798;42.716;23.256;2022-08-21T06:27:11;64796.84;;;-148.84;100.00
5550;BME280;2798;42.716;23.256;2022-08-21T06:29:37;64796.84;;;-148.84;100.00
5550;BME280;2798;42.716;23.256;2022-08-21T06:32:03;64796.84;;;-148.84;100.00
5550;BME280;2798;42.716;23.256;2022-08-21T06:34:29;64796.84;;;-148.84;100.00
5550;BME280;2798;42.716;23.256;2022-08-21T06:36:55;64796.84;;;-148.84;100.00
5550;BME280;2798;42.716;23.256;2022-08-21T06:39:21;64796.84;;;-148.84;100.00
5550;BME280;2798;42.716;23.256;2022-08-21T06:41:47;64796.84;;;-148.84;100.00
5550;BME280;2798;42.716;23.256;2022-08-21T06:44:15;64796.84;;;-148.84;100.00
5550;BME280;2798;42.716;23.256;2022-08-21T06:46:41;64796.84;;;-148.84;100.00
5550;BME280;2798;42.716;23.256;2022-08-21T06:49:06;64796.84;;;-148.84;100.00
5550;BME280;2798;42.716;23.256;2022-08-21T06:51:32;64796.84;;;-148.84;100.00
5550;BME280;2798;42.716;23.256;2022-08-21T06:53:57;64796.84;;;-148.84;100.00
5550;BME280;2798;42.716;23.256;2022-08-21T06:56:23;64796.84;;;-148.84;100.00
5550;BME280;2798;42.716;23.256;2022-08-21T06:58:48;64796.84;;;-148.84;100.00
5550;BME280;2798;42.716;23.256;2022-08-21T07:01:14;64796.84;;;-148.84;100.00
5550;BME280;2798;42.716;23.256;2022-08-21T07:03:41;64796.84;;;-148.84;100.00
5550;BME280;2798;42.716;23.256;2022-08-21T07:06:08;64796.84;;;-148.84;100.00
5550;BME280;2798;42.716;23.256;2022-08-21T07:08:35;64796.84;;;-148.84;100.00
5550;BME280;2798;42.716;23.256;2022-08-21T07:11:04;64796.84;;;-148.84;100.00
5550;BME280;2798;42.716;23.256;2022-08-21T07:13:32;64796.84;;;-148.84;100.00
5550;BME280;2798;42.716;23.256;2022-08-21T07:15:58;64796.84;;;-148.84;100.00
5550;BME280;2798;42.716;23.256;2022-08-21T07:18:23;64796.84;;;-148.84;100.00
5550;BME280;2798;42.716;23.256;2022-08-21T07:20:49;64796.84;;;-148.84;100.00
5550;BME280;2798;42.716;23.256;2022-08-21T07:23:24;64796.84;;;-148.84;100.00
5550;BME280;2798;42.716;23.256;2022-08-21T07:25:51;64796.84;;;-148.84;100.00
5550;BME280;2798;42.716;23.256;2022-08-21T07:28:16;64796.84;;;-148.84;100.00
5550;BME280;2798;42.716;23.256;2022-08-21T07:30:42;64796.84;;;-148.84;100.00
5550;BME280;2798;42.716;23.256;2022-08-21T07:33:07;64796.84;;;-148.84;100.00
5550;BME280;2798;42.716;23.256;2022-08-21T07:35:33;64796.84;;;-148.84;100.00
5550;BME280;2798;42.716;23.256;2022-08-21T07:37:59;64796.84;;;-148.84;100.00
5550;BME280;2798;42.716;23.256;2022-08-21T07:40:25;64796.84;;;-148.84;100.00
5550;BME280;2798;42.716;23.256;2022-08-21T07:42:50;64796.84;;;-148.84;100.00
5550;BME280;2798;42.716;23.256;2022-08-21T07:45:19;64796.84;;;-148.84;100.00
5550;BME280;2798;42.716;23.256;2022-08-21T07:47:45;64796.84;;;-148.84;100.00
5550;BME280;2798;42.716;23.256;2022-08-21T07:50:12;64796.84;;;-148.84;100.00
5550;BME280;2798;42.716;23.256;2022-08-21T07:52:39;64796.84;;;-148.84;100.00
5550;BME280;2798;42.716;23.256;2022-08-21T07:55:11;64796.84;;;-148.84;100.00
5550;BME280;2798;42.716;23.256;2022-08-21T07:57:38;64796.84;;;-148.84;100.00
5550;BME280;2798;42.716;23.256;2022-08-21T08:00:06;64796.84;;;-148.84;100.00
5550;BME280;2798;42.716;23.256;2022-08-21T08:02:35;64796.84;;;-148.84;100.00
5550;BME280;2798;42.716;23.256;2022-08-21T08:05:06;64796.84;;;-148.84;100.00
5550;BME280;2798;42.716;23.256;2022-08-21T08:07:32;64796.84;;;-148.84;100.00
5550;BME280;2798;42.716;23.256;2022-08-21T08:10:04;64796.84;;;-148.84;100.00
5550;BME280;2798;42.716;23.256;2022-08-21T08:12:33;64796.84;;;-148.84;100.00
5550;BME280;2798;42.716;23.256;2022-08-21T08:15:00;64796.84;;;-148.84;100.00
5550;BME280;2798;42.716;23.256;2022-08-21T08:17:29;64796.84;;;-148.84;100.00
5550;BME280;2798;42.716;23.256;2022-08-21T08:19:58;64796.84;;;-148.84;100.00
5550;BME280;2798;42.716;23.256;2022-08-21T08:22:27;64796.84;;;-148.84;100.00
5550;BME280;2798;42.716;23.256;2022-08-21T08:24:53;64796.84;;;-148.84;100.00
5550;BME280;2798;42.716;23.256;2022-08-21T08:27:20;64796.84;;;-148.84;100.00
5550;BME280;2798;42.716;23.256;2022-08-21T08:29:46;64796.84;;;-148.84;100.00
5550;BME280;2798;42.716;23.256;2022-08-21T08:32:13;64796.84;;;-148.84;100.00
5550;BME280;2798;42.716;23.256;2022-08-21T08:34:39;64796.84;;;-148.84;100.00
5550;BME280;2798;42.716;23.256;2022-08-21T08:37:06;64796.84;;;-148.84;100.00
5550;BME280;2798;42.716;23.256;2022-08-21T08:39:32;64796.84;;;-148.84;100.00
5550;BME280;2798;42.716;23.256;2022-08-21T08:42:11;64796.84;;;-148.84;100.00
5550;BME280;2798;42.716;23.256;2022-08-21T08:44:38;64796.84;;;-148.84;100.00
5550;BME280;2798;42.716;23.256;2022-08-21T08:47:09;64796.84;;;-148.84;100.00
5550;BME280;2798;42.716;23.256;2022-08-21T08:49:42;64796.84;;;-148.84;100.00
5550;BME280;2798;42.716;23.256;2022-08-21T08:52:34;64796.84;;;-148.84;100.00
5550;BME280;2798;42.716;23.256;2022-08-21T08:55:07;64796.84;;;-148.84;100.00
5550;BME280;2798;42.716;23.256;2022-08-21T08:57:37;64796.84;;;-148.84;100.00
5550;BME280;2798;42.716;23.256;2022-08-21T09:00:08;64796.84;;;-148.84;100.00
5550;BME280;2798;42.716;23.256;2022-08-21T09:02:40;64796.84;;;-148.84;100.00
5550;BME280;2798;42.716;23.256;2022-08-21T09:05:07;64796.84;;;-148.84;100.00
5550;BME280;2798;42.716;23.256;2022-08-21T09:07:52;64796.84;;;-148.84;100.00
5550;BME280;2798;42.716;23.256;2022-08-21T09:18:53;64796.84;;;-148.84;100.00
5550;BME280;2798;42.716;23.256;2022-08-21T09:21:38;64796.84;;;-148.84;100.00
5550;BME280;2798;42.716;23.256;2022-08-21T09:24:40;64796.84;;;-148.84;100.00
5550;BME280;2798;42.716;23.256;2022-08-21T09:27:14;64796.84;;;-148.84;100.00
5550;BME280;2798;42.716;23.256;2022-08-21T09:29:43;64796.84;;;-148.84;100.00
5550;BME280;2798;42.716;23.256;2022-08-21T09:32:24;64796.84;;;-148.84;100.00
5550;BME280;2798;42.716;23.256;2022-08-21T09:34:59;64796.84;;;-148.84;100.00
5550;BME280;2798;42.716;23.256;2022-08-21T09:37:26;64796.84;;;-148.84;100.00
5550;BME280;2798;42.716;23.256;2022-08-21T09:39:54;64796.84;;;-148.84;100.00
5550;BME280;2798;42.716;23.256;2022-08-21T09:42:28;64796.84;;;-148.84;100.00
5550;BME280;2798;42.716;23.256;2022-08-21T09:45:17;64796.84;;;-148.84;100.00
5550;BME280;2798;42.716;23.256;2022-08-21T09:47:43;64796.84;;;-148.84;100.00
5550;BME280;2798;42.716;23.256;2022-08-21T09:50:19;64796.84;;;-148.84;100.00
5550;BME280;2798;42.716;23.256;2022-08-21T09:52:54;64796.84;;;-148.84;100.00
5550;BME280;2798;42.716;23.256;2022-08-21T09:55:31;64796.84;;;-148.84;100.00
5550;BME280;2798;42.716;23.256;2022-08-21T09:58:18;64796.84;;;-148.84;100.00
5550;BME280;2798;42.716;23.256;2022-08-21T10:00:44;64796.84;;;-148.84;100.00
5550;BME280;2798;42.716;23.256;2022-08-21T10:03:19;64796.84;;;-148.84;100.00
5550;BME280;2798;42.716;23.256;2022-08-21T10:05:52;64796.84;;;-148.84;100.00
5550;BME280;2798;42.716;23.256;2022-08-21T10:08:20;64796.84;;;-148.84;100.00
5550;BME280;2798;42.716;23.256;2022-08-21T10:10:51;64796.84;;;-148.84;100.00
5550;BME280;2798;42.716;23.256;2022-08-21T10:18:32;64796.84;;;-148.84;100.00
5550;BME280;2798;42.716;23.256;2022-08-21T10:24:33;64796.84;;;-148.84;100.00
5550;BME280;2798;42.716;23.256;2022-08-21T10:27:36;64796.84;;;-148.84;100.00
5550;BME280;2798;42.716;23.256;2022-08-21T10:30:15;64796.84;;;-148.84;100.00
5550;BME280;2798;42.716;23.256;2022-08-21T10:35:24;64796.84;;;-148.84;100.00
5550;BME280;2798;42.716;23.256;2022-08-21T10:43:34;64796.84;;;-148.84;100.00
5550;BME280;2798;42.716;23.256;2022-08-21T10:48:41;64796.84;;;-148.84;100.00
5550;BME280;2798;42.716;23.256;2022-08-21T10:51:34;64796.84;;;-148.84;100.00
5550;BME280;2798;42.716;23.256;2022-08-21T10:56:36;64796.84;;;-148.84;100.00
5550;BME280;2798;42.716;23.256;2022-08-21T10:59:26;64796.84;;;-148.84;100.00
5550;BME280;2798;42.716;23.256;2022-08-21T11:02:00;64796.84;;;-148.84;100.00
5550;BME280;2798;42.716;23.256;2022-08-21T11:04:30;64796.84;;;-148.84;100.00
5550;BME280;2798;42.716;23.256;2022-08-21T11:07:02;64796.84;;;-148.84;100.00
5550;BME280;2798;42.716;23.256;2022-08-21T11:09:30;64796.84;;;-148.84;100.00
5550;BME280;2798;42.716;23.256;2022-08-21T11:12:00;64796.84;;;-148.84;100.00
5550;BME280;2798;42.716;23.256;2022-08-21T11:17:13;64796.84;;;-148.84;100.00
5550;BME280;2798;42.716;23.256;2022-08-21T11:23:04;64796.84;;;-148.84;100.00
5550;BME280;2798;42.716;23.256;2022-08-21T11:30:44;64796.84;;;-148.84;100.00
5550;BME280;2798;42.716;23.256;2022-08-21T11:33:42;64796.84;;;-148.84;100.00
5550;BME280;2798;42.716;23.256;2022-08-21T11:36:34;64796.84;;;-148.84;100.00
5550;BME280;2798;42.716;23.256;2022-08-21T11:42:19;64796.84;;;-148.84;100.00
5550;BME280;2798;42.716;23.256;2022-08-21T11:48:05;64796.84;;;-148.84;100.00
5550;BME280;2798;42.716;23.256;2022-08-21T11:50:35;64796.84;;;-148.84;100.00
5550;BME280;2798;42.716;23.256;2022-08-21T11:53:35;64796.84;;;-148.84;100.00
5550;BME280;2798;42.716;23.256;2022-08-21T11:56:08;64796.84;;;-148.84;100.00
5550;BME280;2798;42.716;23.256;2022-08-21T11:58:45;64796.84;;;-148.84;100.00
5550;BME280;2798;42.716;23.256;2022-08-21T12:01:18;64796.84;;;-148.84;100.00
5550;BME280;2798;42.716;23.256;2022-08-21T12:03:55;64796.84;;;-148.84;100.00
5550;BME280;2798;42.716;23.256;2022-08-21T12:06:35;64796.84;;;-148.84;100.00
5550;BME280;2798;42.716;23.256;2022-08-21T12:09:05;64796.84;;;-148.84;100.00
5550;BME280;2798;42.716;23.256;2022-08-21T12:11:32;64796.84;;;-148.84;100.00
5550;BME280;2798;42.716;23.256;2022-08-21T12:16:44;64796.84;;;-148.84;100.00
5550;BME280;2798;42.716;23.256;2022-08-21T12:19:29;64796.84;;;-148.84;100.00
5550;BME280;2798;42.716;23.256;2022-08-21T12:24:41;64796.84;;;-148.84;100.00
5550;BME280;2798;42.716;23.256;2022-08-21T12:30:05;64796.84;;;-148.84;100.00
5550;BME280;2798;42.716;23.256;2022-08-21T12:32:45;64796.84;;;-148.84;100.00
5550;BME280;2798;42.716;23.256;2022-08-21T12:35:21;64796.84;;;-148.84;100.00
5550;BME280;2798;42.716;23.256;2022-08-21T12:37:52;64796.84;;;-148.84;100.00
5550;BME280;2798;42.716;23.256;2022-08-21T12:40:25;64796.84;;;-148.84;100.00
5550;BME280;2798;42.716;23.256;2022-08-21T12:42:58;64796.84;;;-148.84;100.00
5550;BME280;2798;42.716;23.256;2022-08-21T12:45:34;64796.84;;;-148.84;100.00
5550;BME280;2798;42.716;23.256;2022-08-21T12:50:58;64796.84;;;-148.84;100.00
5550;BME280;2798;42.716;23.256;2022-08-21T12:56:18;64796.84;;;-148.84;100.00
5550;BME280;2798;42.716;23.256;2022-08-21T12:58:51;64796.84;;;-148.84;100.00
5550;BME280;2798;42.716;23.256;2022-08-21T13:01:24;64796.84;;;-148.84;100.00
5550;BME280;2798;42.716;23.256;2022-08-21T13:03:53;64796.84;;;-148.84;100.00
5550;BME280;2798;42.716;23.256;2022-08-21T13:06:20;64796.84;;;-148.84;100.00
5550;BME280;2798;42.716;23.256;2022-08-21T13:08:48;64796.84;;;-148.84;100.00
5550;BME280;2798;42.716;23.256;2022-08-21T13:11:19;64796.84;;;-148.84;100.00
5550;BME280;2798;42.716;23.256;2022-08-21T13:13:51;64796.84;;;-148.84;100.00
5550;BME280;2798;42.716;23.256;2022-08-21T13:16:29;64796.84;;;-148.84;100.00
5550;BME280;2798;42.716;23.256;2022-08-21T13:19:02;64796.84;;;-148.84;100.00
5550;BME280;2798;42.716;23.256;2022-08-21T13:21:42;64796.84;;;-148.84;100.00
5550;BME280;2798;42.716;23.256;2022-08-21T13:26:49;64796.84;;;-148.84;100.00
5550;BME280;2798;42.716;23.256;2022-08-21T13:29:18;64796.84;;;-148.84;100.00
5550;BME280;2798;42.716;23.256;2022-08-21T13:31:59;64796.84;;;-148.84;100.00
5550;BME280;2798;42.716;23.256;2022-08-21T13:34:29;64796.84;;;-148.84;100.00
5550;BME280;2798;42.716;23.256;2022-08-21T13:36:58;64796.84;;;-148.84;100.00
5550;BME280;2798;42.716;23.256;2022-08-21T13:39:25;64796.84;;;-148.84;100.00
5550;BME280;2798;42.716;23.256;2022-08-21T13:41:55;64796.84;;;-148.84;100.00
5550;BME280;2798;42.716;23.256;2022-08-21T13:44:23;64796.84;;;-148.84;100.00
5550;BME280;2798;42.716;23.256;2022-08-21T13:46:52;64796.84;;;-148.84;100.00
5550;BME280;2798;42.716;23.256;2022-08-21T13:52:54;64796.84;;;-148.84;100.00
5550;BME280;2798;42.716;23.256;2022-08-21T13:55:20;64796.84;;;-148.84;100.00
5550;BME280;2798;42.716;23.256;2022-08-21T13:57:46;64796.84;;;-148.84;100.00
5550;BME280;2798;42.716;23.256;2022-08-21T14:00:24;64796.84;;;-148.84;100.00
5550;BME280;2798;42.716;23.256;2022-08-21T14:02:51;64796.84;;;-148.84;100.00
5550;BME280;2798;42.716;23.256;2022-08-21T14:05:25;64796.84;;;-148.84;100.00
5550;BME280;2798;42.716;23.256;2022-08-21T14:07:58;64796.84;;;-148.84;100.00